Time;durP1;ratioP1;P1;durP2;ratioP2;P2;SDS_P1;SDS_P2;PMS_P1;PMS_P2;Temp;Humidity;BMP_temperature;BMP_pressure;BME280_temperature;BME280_humidity;BME280_pressure;Samples;Min_cycle;Max_cycle;Signal;HPM_P1;HPM_P2
2022/09/27 00:02:38;;;;;;;0.50;0.50;;;20.80;57.60;;;;;;6292710;28;20025;-67
2022/09/27 00:05:40;;;;;;;1.00;0.70;;;20.80;57.60;;;;;;6292924;28;20016;-66
2022/09/27 00:08:42;;;;;;;1.52;0.70;;;20.80;57.60;;;;;;6292520;28;20727;-67
2022/09/27 00:11:42;;;;;;;1.08;0.68;;;20.80;57.70;;;;;;6292522;28;20119;-66
2022/09/27 00:14:43;;;;;;;1.20;0.60;;;20.80;57.70;;;;;;6292480;28;20427;-66
2022/09/27 00:17:44;;;;;;;0.60;0.60;;;20.80;57.60;;;;;;6292314;28;20421;-66
2022/09/27 00:20:45;;;;;;;0.65;0.50;;;20.80;57.60;;;;;;6292356;28;20027;-66
2022/09/27 00:23:46;;;;;;;0.55;0.50;;;20.80;57.60;;;;;;6292100;28;20020;-66
2022/09/27 00:26:48;;;;;;;0.90;0.70;;;20.80;57.60;;;;;;6291069;28;20079;-67
2022/09/27 00:29:48;;;;;;;0.98;0.70;;;20.80;57.70;;;;;;6290943;28;20442;-66
2022/09/27 00:32:51;;;;;;;1.05;0.70;;;20.80;57.60;;;;;;6292028;28;20025;-66
2022/09/27 00:35:53;;;;;;;0.90;0.70;;;20.80;57.60;;;;;;6291965;28;20370;-66
2022/09/27 00:38:55;;;;;;;0.80;0.60;;;20.80;57.60;;;;;;6290784;28;20633;-66
2022/09/27 00:41:55;;;;;;;1.20;1.00;;;20.80;57.60;;;;;;6292344;28;20039;-66
2022/09/27 00:45:16;;;;;;;0.70;0.60;;;20.80;57.60;;;;;;6283884;28;20024;-67
2022/09/27 00:48:22;;;;;;;0.60;0.57;;;20.80;57.70;;;;;;6270191;28;20086;-66
2022/09/27 00:51:23;;;;;;;0.60;0.60;;;20.80;57.70;;;;;;6291363;28;20029;-66
2022/09/27 00:54:27;;;;;;;1.63;0.70;;;20.80;57.60;;;;;;6291477;28;20028;-66
2022/09/27 00:57:28;;;;;;;1.83;0.70;;;20.80;57.70;;;;;;6292084;28;20025;-66
2022/09/27 01:00:30;;;;;;;1.38;0.70;;;20.80;57.60;;;;;;6290855;28;20120;-66
2022/09/27 01:03:51;;;;;;;1.38;0.60;;;20.80;57.60;;;;;;6291623;28;20017;-67
2022/09/27 01:06:52;;;;;;;0.55;0.55;;;20.80;57.50;;;;;;6292606;28;20016;-67
2022/09/27 01:09:53;;;;;;;0.63;0.60;;;20.80;57.60;;;;;;6291908;28;20032;-66
2022/09/27 01:13:22;;;;;;;0.90;0.60;;;20.80;57.60;;;;;;6292035;28;20071;-66
2022/09/27 01:17:01;;;;;;;1.15;0.77;;;20.80;57.60;;;;;;6272538;28;20039;-66
2022/09/27 01:20:23;;;;;;;0.90;0.57;;;20.80;57.60;;;;;;6291527;28;20059;-67
2022/09/27 01:24:00;;;;;;;0.93;0.70;;;20.80;57.60;;;;;;6289987;28;20028;-67
2022/09/27 01:27:47;;;;;;;0.52;0.45;;;20.80;57.60;;;;;;6291126;28;20052;-66
2022/09/27 01:31:03;;;;;;;0.80;0.60;;;20.80;57.60;;;;;;6291497;28;20025;-66
2022/09/27 01:34:18;;;;;;;0.60;0.50;;;20.80;57.60;;;;;;6289858;28;20013;-67
2022/09/27 01:37:55;;;;;;;0.70;0.60;;;20.80;57.50;;;;;;6291818;28;20029;-66
2022/09/27 01:41:03;;;;;;;;;;;20.80;57.60;;;;;;6291941;28;20032;-66
2022/09/27 01:44:23;;;;;;;0.70;0.60;;;20.80;57.60;;;;;;6290618;28;19987;-67
2022/09/27 01:47:36;;;;;;;0.50;0.50;;;20.80;57.50;;;;;;6268547;28;20051;-66
2022/09/27 01:51:08;;;;;;;1.15;0.60;;;20.80;57.50;;;;;;6285412;28;20154;-67
2022/09/27 01:54:16;;;;;;;0.82;0.60;;;20.80;57.60;;;;;;6294654;28;20044;-66
2022/09/27 01:57:23;;;;;;;0.77;0.55;;;20.80;57.60;;;;;;6296237;28;20481;-67
2022/09/27 02:00:24;;;;;;;0.98;0.63;;;20.80;57.50;;;;;;6295890;28;20075;-66
2022/09/27 02:03:31;;;;;;;0.63;0.50;;;20.80;57.60;;;;;;6295872;28;20029;-67
2022/09/27 02:06:43;;;;;;;0.50;0.50;;;20.80;57.50;;;;;;6294130;28;20032;-67
2022/09/27 02:09:57;;;;;;;0.55;0.50;;;20.80;57.50;;;;;;6295773;28;20045;-66
2022/09/27 02:13:12;;;;;;;0.60;0.50;;;20.80;57.50;;;;;;6295519;28;20024;-67
2022/09/27 02:16:35;;;;;;;0.40;0.40;;;20.80;57.50;;;;;;6295185;28;20651;-66
2022/09/27 02:19:57;;;;;;;0.70;0.50;;;20.80;57.60;;;;;;6295320;28;20451;-66
2022/09/27 02:23:23;;;;;;;0.55;0.50;;;20.80;57.50;;;;;;6295278;28;20393;-67
2022/09/27 02:26:41;;;;;;;0.55;0.45;;;20.80;57.50;;;;;;6295120;28;20039;-67
2022/09/27 02:29:55;;;;;;;0.40;0.40;;;20.80;57.50;;;;;;6295195;28;20032;-66
2022/09/27 02:32:55;;;;;;;0.40;0.40;;;20.80;57.50;;;;;;6294908;28;20070;-66
2022/09/27 02:35:56;;;;;;;0.63;0.45;;;20.80;57.50;;;;;;6295267;28;20021;-67
2022/09/27 02:38:57;;;;;;;1.00;0.65;;;20.80;57.50;;;;;;6295130;28;20048;-66
2022/09/27 02:41:58;;;;;;;0.45;0.45;;;20.80;57.60;;;;;;6294922;28;20469;-66
2022/09/27 02:45:00;;;;;;;0.65;0.55;;;20.80;57.50;;;;;;6287628;28;20075;-67
2022/09/27 02:48:15;;;;;;;0.50;0.45;;;20.80;57.50;;;;;;6294672;28;20044;-66
2022/09/27 02:51:47;;;;;;;0.60;0.52;;;20.80;57.60;;;;;;6293584;28;20067;-66
2022/09/27 02:55:19;;;;;;;0.40;0.40;;;20.80;57.50;;;;;;6294605;28;20516;-66
2022/09/27 02:58:29;;;;;;;0.50;0.50;;;20.80;57.50;;;;;;6269553;28;20039;-67
2022/09/27 03:01:36;;;;;;;0.50;0.50;;;20.80;57.60;;;;;;6281480;28;20105;-66
2022/09/27 03:04:53;;;;;;;0.50;0.40;;;20.80;57.60;;;;;;6294094;28;20066;-66
2022/09/27 03:07:53;;;;;;;0.40;0.40;;;20.80;57.50;;;;;;6294358;28;20515;-67
2022/09/27 03:10:54;;;;;;;0.43;0.40;;;20.80;57.50;;;;;;6294445;28;20048;-66
2022/09/27 03:13:55;;;;;;;0.60;0.52;;;20.80;57.50;;;;;;6293927;28;20063;-66
2022/09/27 03:16:56;;;;;;;0.60;0.50;;;20.80;57.50;;;;;;6293902;28;20081;-66
2022/09/27 03:19:57;;;;;;;0.40;0.40;;;20.80;57.50;;;;;;6293251;28;20029;-66
2022/09/27 03:22:57;;;;;;;0.90;0.65;;;20.80;57.60;;;;;;6293635;28;20055;-66
2022/09/27 03:25:58;;;;;;;0.55;0.50;;;20.80;57.60;;;;;;6293527;28;20025;-66
2022/09/27 03:29:00;;;;;;;0.55;0.40;;;20.80;57.50;;;;;;6293575;28;20393;-67
2022/09/27 03:32:02;;;;;;;0.50;0.40;;;20.70;57.50;;;;;;6293870;28;20475;-66
2022/09/27 03:35:03;;;;;;;0.60;0.40;;;20.80;57.50;;;;;;6293198;28;20103;-66
2022/09/27 03:38:05;;;;;;;0.50;0.40;;;20.80;58.20;;;;;;6293585;28;20081;-66
2022/09/27 03:41:06;;;;;;;0.40;0.30;;;20.80;57.50;;;;;;6293640;28;20094;-67
2022/09/27 03:44:07;;;;;;;0.47;0.47;;;20.80;57.50;;;;;;6290831;28;20021;-66
2022/09/27 03:47:08;;;;;;;0.73;0.40;;;20.80;57.50;;;;;;6278719;28;20052;-67
2022/09/27 03:50:10;;;;;;;0.65;0.50;;;20.80;57.50;;;;;;6293144;28;20028;-67
2022/09/27 03:53:11;;;;;;;0.45;0.38;;;20.80;57.60;;;;;;6292877;28;20032;-66
2022/09/27 03:56:12;;;;;;;0.40;0.32;;;20.80;57.50;;;;;;6292876;28;20028;-66
2022/09/27 03:59:13;;;;;;;0.40;0.40;;;20.80;57.50;;;;;;6292776;28;20028;-67
2022/09/27 04:02:14;;;;;;;0.80;0.38;;;20.80;57.60;;;;;;6293063;28;20016;-66
2022/09/27 04:05:15;;;;;;;0.32;0.30;;;20.80;57.50;;;;;;6291027;28;20074;-67
2022/09/27 04:08:15;;;;;;;0.45;0.40;;;20.80;57.50;;;;;;6292469;28;20039;-66
2022/09/27 04:11:16;;;;;;;0.40;0.40;;;20.80;57.50;;;;;;6291695;28;20021;-67
2022/09/27 04:14:17;;;;;;;0.80;0.50;;;20.80;57.50;;;;;;6292753;28;20020;-67
2022/09/27 04:17:18;;;;;;;0.57;0.50;;;20.80;57.50;;;;;;6292279;28;20024;-67
2022/09/27 04:20:18;;;;;;;0.55;0.30;;;20.80;57.50;;;;;;6292601;28;20032;-67
2022/09/27 04:23:19;;;;;;;0.40;0.40;;;20.80;57.50;;;;;;6292296;28;20032;-68
2022/09/27 04:26:21;;;;;;;0.40;0.40;;;20.80;57.50;;;;;;6290961;28;20040;-67
2022/09/27 04:29:21;;;;;;;0.70;0.45;;;20.80;57.50;;;;;;6290722;28;20032;-68
2022/09/27 04:32:22;;;;;;;0.55;0.30;;;20.80;57.50;;;;;;6291117;28;20386;-67
2022/09/27 04:38:42;;;;;;;0.55;0.43;;;20.80;57.50;;;;;;6291855;28;20037;-67
2022/09/27 04:41:44;;;;;;;0.60;0.40;;;20.80;57.50;;;;;;6292017;28;20047;-68
2022/09/27 04:44:46;;;;;;;0.57;0.40;;;20.80;57.50;;;;;;6285497;28;20025;-68
2022/09/27 04:47:49;;;;;;;0.77;0.55;;;20.80;57.50;;;;;;6274907;28;20098;-68
2022/09/27 04:50:57;;;;;;;0.70;0.40;;;20.80;57.50;;;;;;6290774;28;20127;-67
2022/09/27 04:53:58;;;;;;;0.50;0.40;;;20.80;57.50;;;;;;6292389;28;20032;-68
2022/09/27 04:56:59;;;;;;;0.40;0.38;;;20.80;57.50;;;;;;6290365;28;20469;-67
2022/09/27 05:00:44;;;;;;;0.32;0.32;;;20.80;57.50;;;;;;6292240;28;20032;-67
2022/09/27 05:03:45;;;;;;;0.70;0.50;;;20.80;57.50;;;;;;6280756;28;20362;-67
2022/09/27 05:06:45;;;;;;;0.50;0.40;;;20.80;57.50;;;;;;6292292;28;20047;-68
2022/09/27 05:09:46;;;;;;;0.75;0.40;;;20.80;57.50;;;;;;6289849;28;20119;-68
2022/09/27 05:12:47;;;;;;;0.50;0.40;;;20.80;57.50;;;;;;6292079;28;20016;-68
2022/09/27 05:15:47;;;;;;;0.70;0.40;;;20.80;57.50;;;;;;6291596;28;20541;-68
2022/09/27 05:18:48;;;;;;;0.35;0.35;;;20.80;57.50;;;;;;6291808;28;20020;-67
2022/09/27 05:21:49;;;;;;;0.60;0.50;;;20.80;57.50;;;;;;6294642;28;20032;-67
2022/09/27 05:24:50;;;;;;;0.40;0.40;;;20.80;57.50;;;;;;6295155;28;20540;-67
2022/09/27 05:27:52;;;;;;;0.30;0.30;;;20.80;57.50;;;;;;6297135;28;20038;-67
2022/09/27 05:30:52;;;;;;;0.75;0.50;;;20.80;57.50;;;;;;6295924;28;20028;-68
2022/09/27 05:33:53;;;;;;;0.55;0.40;;;20.80;57.50;;;;;;6296659;28;20025;-68
2022/09/27 05:36:54;;;;;;;0.50;0.30;;;20.80;57.50;;;;;;6296553;28;20092;-67
2022/09/27 05:39:55;;;;;;;0.40;0.28;;;20.80;57.50;;;;;;6296123;28;20033;-67
2022/09/27 05:42:56;;;;;;;0.30;0.30;;;20.80;57.50;;;;;;6296677;28;20032;-68
2022/09/27 05:45:57;;;;;;;0.50;0.50;;;20.80;57.50;;;;;;6281539;28;20100;-68
2022/09/27 05:48:58;;;;;;;0.77;0.43;;;20.80;57.50;;;;;;6294501;28;20091;-68
2022/09/27 05:51:59;;;;;;;0.75;0.43;;;20.80;57.50;;;;;;6296241;28;20080;-68
2022/09/27 05:55:00;;;;;;;0.20;0.20;;;20.80;57.50;;;;;;6296339;28;20025;-68
2022/09/27 05:58:06;;;;;;;0.40;0.30;;;20.80;57.40;;;;;;6295912;28;20070;-68
2022/09/27 06:01:08;;;;;;;2.92;0.40;;;20.80;57.40;;;;;;6285551;28;20104;-68
2022/09/27 06:04:09;;;;;;;0.35;0.35;;;20.80;57.40;;;;;;6282633;28;20142;-67
2022/09/27 06:07:10;;;;;;;0.40;0.40;;;20.80;57.40;;;;;;6298024;28;20417;-67
2022/09/27 06:10:10;;;;;;;0.30;0.30;;;20.80;57.50;;;;;;6297443;28;20036;-68
2022/09/27 06:13:14;;;;;;;0.50;0.50;;;20.80;57.50;;;;;;6297628;28;20024;-67
2022/09/27 06:16:15;;;;;;;2.20;0.60;;;20.80;57.50;;;;;;6297286;28;20027;-68
2022/09/27 06:19:16;;;;;;;0.70;0.55;;;20.80;57.50;;;;;;6297674;28;20041;-67
2022/09/27 06:22:17;;;;;;;0.73;0.52;;;20.80;57.50;;;;;;6297467;28;20385;-67
2022/09/27 06:25:17;;;;;;;1.15;0.60;;;20.80;57.50;;;;;;6297582;28;20025;-68
2022/09/27 06:28:19;;;;;;;0.38;0.38;;;20.80;57.50;;;;;;6297626;28;20059;-67
2022/09/27 06:31:20;;;;;;;0.45;0.40;;;20.80;57.50;;;;;;6297942;28;20493;-66
2022/09/27 06:34:21;;;;;;;0.50;0.40;;;20.80;57.50;;;;;;6297051;28;20079;-67
2022/09/27 06:37:26;;;;;;;0.50;0.40;;;20.70;57.40;;;;;;6297641;28;20428;-67
2022/09/27 06:40:26;;;;;;;0.75;0.63;;;20.80;57.50;;;;;;6297119;28;20029;-68
2022/09/27 06:43:28;;;;;;;0.75;0.57;;;20.80;57.50;;;;;;6296597;28;20025;-67
2022/09/27 06:46:28;;;;;;;0.63;0.50;;;20.80;57.50;;;;;;6276428;28;20021;-67
2022/09/27 06:49:30;;;;;;;0.52;0.50;;;20.80;57.50;;;;;;6276622;28;20108;-67
2022/09/27 06:52:32;;;;;;;0.40;0.40;;;20.80;57.50;;;;;;6295856;28;20498;-67
2022/09/27 06:55:33;;;;;;;0.47;0.40;;;20.80;57.50;;;;;;6296688;28;20035;-67
2022/09/27 07:01:53;;;;;;;0.65;0.40;;;20.80;57.50;;;;;;6296423;28;20460;-67
2022/09/27 07:04:54;;;;;;;1.05;0.65;;;20.80;57.50;;;;;;6296682;28;20027;-67
2022/09/27 07:07:58;;;;;;;0.70;0.60;;;20.80;57.50;;;;;;6295374;28;20123;-67
2022/09/27 07:11:05;;;;;;;0.53;0.53;;;20.80;57.50;;;;;;6296373;28;20071;-68
2022/09/27 07:14:07;;;;;;;1.80;0.70;;;20.80;57.50;;;;;;6295975;28;20048;-67
2022/09/27 07:17:07;;;;;;;0.68;0.47;;;20.80;57.50;;;;;;6296082;28;20583;-67
2022/09/27 07:20:08;;;;;;;1.05;0.50;;;20.80;57.50;;;;;;6296271;28;20032;-67
2022/09/27 07:23:14;;;;;;;1.10;0.50;;;20.80;58.20;;;;;;6294466;28;20056;-67
2022/09/27 07:26:15;;;;;;;0.57;0.43;;;20.80;57.50;;;;;;6296185;28;20397;-67
2022/09/27 07:29:15;;;;;;;0.88;0.47;;;20.80;57.50;;;;;;6296115;28;20029;-68
2022/09/27 07:32:16;;;;;;;0.40;0.40;;;20.80;57.50;;;;;;6295720;28;20028;-67
2022/09/27 07:35:17;;;;;;;1.02;0.50;;;20.80;57.50;;;;;;6295707;28;20028;-67
2022/09/27 07:38:19;;;;;;;1.25;0.73;;;20.80;57.50;;;;;;6295851;28;20039;-68
2022/09/27 07:41:19;;;;;;;0.50;0.40;;;20.80;57.50;;;;;;6293604;28;20889;-67
2022/09/27 07:44:20;;;;;;;0.70;0.50;;;20.80;57.50;;;;;;6292838;28;20025;-67
2022/09/27 07:47:24;;;;;;;0.40;0.38;;;20.80;57.50;;;;;;6291204;28;20049;-67
2022/09/27 07:50:25;;;;;;;0.45;0.45;;;20.80;57.50;;;;;;6295646;28;20033;-67
2022/09/27 07:53:26;;;;;;;0.88;0.40;;;20.80;57.50;;;;;;6276956;28;20064;-68
2022/09/27 07:56:28;;;;;;;0.50;0.30;;;20.80;57.50;;;;;;6291336;28;20123;-68
2022/09/27 07:59:28;;;;;;;0.47;0.40;;;20.80;57.50;;;;;;6294217;28;20020;-67
2022/09/27 08:02:32;;;;;;;0.47;0.40;;;20.70;57.40;;;;;;6292756;28;20414;-68
2022/09/27 08:05:35;;;;;;;0.57;0.40;;;20.80;57.50;;;;;;6293282;28;20112;-68
2022/09/27 08:08:36;;;;;;;0.60;0.47;;;20.80;57.50;;;;;;6294017;28;20025;-67
2022/09/27 08:11:36;;;;;;;0.60;0.32;;;20.80;57.50;;;;;;6294178;28;20437;-67
2022/09/27 08:14:37;;;;;;;0.93;0.45;;;20.80;57.60;;;;;;6293930;28;20033;-67
2022/09/27 08:17:38;;;;;;;3.00;0.80;;;20.80;57.70;;;;;;6293890;28;20025;-69
2022/09/27 08:20:39;;;;;;;0.82;0.47;;;20.80;57.50;;;;;;6292892;28;20477;-68
2022/09/27 08:23:39;;;;;;;2.00;1.13;;;20.80;57.60;;;;;;6293610;28;20037;-68
2022/09/27 08:26:40;;;;;;;2.47;1.20;;;20.80;57.10;;;;;;6294006;28;20280;-69
2022/09/27 08:29:41;;;;;;;2.83;1.20;;;20.80;57.20;;;;;;6293932;28;20074;-68
2022/09/27 08:32:42;;;;;;;3.88;0.70;;;20.80;57.30;;;;;;6293539;28;20500;-66
2022/09/27 08:35:42;;;;;;;1.83;1.00;;;20.80;57.60;;;;;;6293358;28;20052;-67
2022/09/27 08:38:48;;;;;;;1.73;0.80;;;20.90;57.60;;;;;;6293922;28;20063;-67
2022/09/27 08:42:26;;;;;;;4.40;1.13;;;20.80;58.00;;;;;;6293284;28;20024;-67
2022/09/27 08:45:38;;;;;;;4.88;0.60;;;20.80;57.90;;;;;;6280368;28;20029;-66
2022/09/27 08:48:39;;;;;;;3.33;0.90;;;20.80;58.00;;;;;;6273242;28;20043;-68
2022/09/27 08:51:41;;;;;;;1.20;0.77;;;20.80;58.00;;;;;;6290523;28;20090;-69
2022/09/27 08:54:43;;;;;;;2.47;0.98;;;20.70;57.90;;;;;;6292971;28;20025;-68
2022/09/27 08:57:52;;;;;;;1.23;1.00;;;20.70;57.80;;;;;;6291925;28;20104;-68
2022/09/27 09:00:56;;;;;;;2.40;1.15;;;20.70;57.60;;;;;;6293001;28;20031;-67
2022/09/27 09:04:00;;;;;;;2.95;1.20;;;20.70;56.80;;;;;;6293328;28;20058;-68
2022/09/27 09:07:15;;;;;;;9.10;1.30;;;20.80;56.90;;;;;;6285232;28;20070;-68
2022/09/27 09:14:18;;;;;;;4.60;1.10;;;20.80;57.00;;;;;;6293308;28;20021;-68
2022/09/27 09:17:31;;;;;;;2.22;0.90;;;20.80;57.20;;;;;;6291187;28;20024;-68
2022/09/27 09:20:54;;;;;;;4.95;1.15;;;20.70;57.30;;;;;;6292429;28;20054;-68
2022/09/27 09:24:19;;;;;;;1.15;0.90;;;20.80;57.40;;;;;;6304958;28;20020;-68
2022/09/27 09:27:29;;;;;;;5.90;1.17;;;20.80;57.50;;;;;;6297038;28;20033;-67
2022/09/27 09:31:08;;;;;;;1.83;0.93;;;20.80;57.60;;;;;;6291803;28;20033;-67
2022/09/27 09:34:34;;;;;;;1.08;0.93;;;20.80;57.60;;;;;;6289902;28;20025;-68
2022/09/27 09:37:37;;;;;;;2.20;1.08;;;20.70;57.50;;;;;;6292843;28;20390;-68
2022/09/27 09:40:58;;;;;;;3.95;1.20;;;20.70;57.50;;;;;;6293074;28;20506;-68
2022/09/27 09:44:14;;;;;;;1.67;0.90;;;20.70;57.60;;;;;;6289241;28;20484;-68
2022/09/27 09:47:26;;;;;;;2.10;0.80;;;20.80;57.60;;;;;;6281723;28;20473;-68
2022/09/27 09:50:30;;;;;;;1.73;0.80;;;20.70;57.60;;;;;;6293165;28;20033;-68
2022/09/27 09:54:09;;;;;;;4.47;0.95;;;20.70;57.50;;;;;;6292580;28;20100;-68
2022/09/27 09:57:10;;;;;;;2.45;0.90;;;20.80;57.60;;;;;;6291082;28;20067;-68
2022/09/27 10:00:16;;;;;;;0.98;0.60;;;20.80;57.70;;;;;;6291760;28;20020;-68
2022/09/27 10:03:18;;;;;;;2.55;0.90;;;20.70;57.60;;;;;;6291209;28;20021;-68
2022/09/27 10:06:19;;;;;;;2.15;0.80;;;20.80;57.60;;;;;;6292901;28;20509;-68
2022/09/27 10:09:24;;;;;;;1.77;0.82;;;20.80;57.60;;;;;;6294687;28;20037;-68
2022/09/27 10:12:26;;;;;;;3.03;0.90;;;20.80;57.70;;;;;;6286951;28;20033;-68
2022/09/27 10:15:29;;;;;;;1.77;0.82;;;20.70;57.60;;;;;;6297429;28;20423;-68
2022/09/27 10:18:31;;;;;;;0.85;0.60;;;20.70;57.60;;;;;;6296262;28;20520;-68
2022/09/27 10:21:34;;;;;;;2.38;0.82;;;20.80;57.60;;;;;;6296811;28;20020;-68
2022/09/27 10:25:00;;;;;;;1.73;0.68;;;20.80;57.70;;;;;;6296150;28;20039;-68
2022/09/27 10:28:01;;;;;;;1.10;0.80;;;20.70;57.60;;;;;;6286164;28;20040;-67
2022/09/27 10:31:16;;;;;;;0.82;0.65;;;20.70;57.60;;;;;;6296735;28;20101;-68
2022/09/27 10:34:24;;;;;;;;;;;20.70;57.70;;;;;;6295441;28;20032;-67
2022/09/27 10:37:24;;;;;;;2.13;0.80;;;20.80;57.70;;;;;;6285797;28;19963;-68
2022/09/27 10:40:32;;;;;;;4.93;0.82;;;20.70;57.80;;;;;;6279033;28;20028;-67
2022/09/27 10:43:35;;;;;;;4.78;1.00;;;20.70;57.60;;;;;;6276581;28;20051;-68
2022/09/27 10:46:37;;;;;;;2.65;0.82;;;20.70;57.40;;;;;;6280893;28;20064;-67
2022/09/27 10:49:40;;;;;;;1.63;0.82;;;20.70;57.50;;;;;;6285169;28;20033;-68
2022/09/27 10:52:41;;;;;;;3.08;0.90;;;20.70;57.60;;;;;;6296365;28;20036;-67
2022/09/27 10:55:47;;;;;;;1.58;0.90;;;20.70;57.60;;;;;;6295062;28;20017;-68
2022/09/27 10:58:48;;;;;;;1.73;0.90;;;20.70;57.60;;;;;;6295178;28;20094;-68
2022/09/27 11:01:49;;;;;;;8.70;1.25;;;20.70;57.70;;;;;;6293728;28;20481;-68
2022/09/27 11:05:13;;;;;;;2.53;0.82;;;20.80;58.10;;;;;;6294748;28;20037;-67
2022/09/27 11:08:32;;;;;;;2.75;0.80;;;20.90;57.80;;;;;;6283106;28;20144;-68
2022/09/27 11:11:33;;;;;;;1.60;0.70;;;20.90;57.70;;;;;;6293748;28;20112;-68
2022/09/27 11:14:34;;;;;;;2.72;0.75;;;21.00;57.80;;;;;;6294253;28;20469;-68
2022/09/27 11:17:58;;;;;;;2.22;0.80;;;21.00;57.60;;;;;;6294016;28;20020;-69
2022/09/27 11:21:14;;;;;;;0.90;0.70;;;21.00;57.80;;;;;;6290512;28;20081;-69
2022/09/27 11:24:30;;;;;;;0.93;0.60;;;21.00;57.70;;;;;;6295264;28;20025;-69
2022/09/27 11:27:53;;;;;;;1.15;0.63;;;21.10;57.60;;;;;;6295124;28;20033;-69
2022/09/27 11:31:08;;;;;;;4.93;0.75;;;21.20;57.40;;;;;;6295412;28;20028;-70
2022/09/27 11:34:30;;;;;;;1.83;0.88;;;21.20;57.40;;;;;;6294473;28;20016;-69
2022/09/27 11:37:59;;;;;;;2.35;0.80;;;21.20;57.30;;;;;;6269334;28;20048;-69
2022/09/27 11:41:27;;;;;;;1.70;0.90;;;21.20;57.30;;;;;;6295021;28;20024;-68
2022/09/27 11:44:40;;;;;;;1.42;0.75;;;21.30;57.20;;;;;;6288743;28;20306;-67
2022/09/27 11:47:47;;;;;;;1.40;0.77;;;21.30;57.20;;;;;;6277221;28;20052;-68
2022/09/27 11:51:21;;;;;;;1.80;0.50;;;21.30;57.20;;;;;;6294950;28;20020;-68
2022/09/27 11:54:43;;;;;;;0.70;0.60;;;21.40;57.20;;;;;;6293030;28;20016;-68
2022/09/27 11:58:21;;;;;;;8.95;1.15;;;21.40;57.30;;;;;;6294691;28;20029;-69
2022/09/27 12:01:45;;;;;;;3.28;0.85;;;21.50;57.20;;;;;;6277523;28;20021;-67
2022/09/27 12:05:00;;;;;;;3.67;1.20;;;21.50;57.10;;;;;;6283645;28;20239;-68
2022/09/27 12:08:38;;;;;;;5.68;1.58;;;21.50;57.30;;;;;;6293840;28;20040;-67
2022/09/27 12:12:02;;;;;;;6.60;1.77;;;21.50;57.40;;;;;;6294821;28;20028;-68
2022/09/27 12:15:16;;;;;;;5.00;1.60;;;21.50;57.30;;;;;;6293189;28;20033;-68
2022/09/27 12:18:31;;;;;;;5.60;1.67;;;21.60;57.10;;;;;;6294025;28;20481;-68
2022/09/27 12:21:32;;;;;;;4.60;1.55;;;21.60;56.90;;;;;;6294738;28;20020;-68
2022/09/27 12:24:33;;;;;;;8.52;2.45;;;21.60;57.10;;;;;;6292341;28;20097;-68
2022/09/27 12:27:42;;;;;;;8.18;1.60;;;21.70;57.10;;;;;;6294726;28;20052;-68
2022/09/27 12:30:49;;;;;;;7.15;2.20;;;21.70;56.80;;;;;;6291533;28;20074;-69
2022/09/27 12:34:02;;;;;;;12.20;3.25;;;21.70;57.00;;;;;;6293966;28;20116;-68
2022/09/27 12:37:03;;;;;;;15.57;3.05;;;21.70;57.30;;;;;;6294155;28;20032;-69
2022/09/27 12:40:33;;;;;;;11.68;2.10;;;21.70;57.30;;;;;;6292881;28;20500;-68
2022/09/27 12:43:34;;;;;;;14.48;2.35;;;21.60;57.10;;;;;;6283568;28;20362;-68
2022/09/27 12:47:07;;;;;;;9.15;2.28;;;21.60;57.40;;;;;;6286323;28;20032;-68
2022/09/27 12:50:19;;;;;;;8.90;2.35;;;21.50;57.50;;;;;;6292452;28;20044;-68
2022/09/27 12:53:37;;;;;;;5.40;2.05;;;21.50;57.60;;;;;;6294023;28;20060;-69
2022/09/27 12:57:01;;;;;;;7.78;2.25;;;21.50;57.70;;;;;;6292871;28;20028;-69
2022/09/27 13:00:24;;;;;;;8.13;2.15;;;21.50;57.70;;;;;;6294358;28;20051;-67
2022/09/27 13:04:02;;;;;;;6.38;2.20;;;21.40;57.20;;;;;;6287872;28;20406;-67
2022/09/27 13:07:29;;;;;;;12.35;2.22;;;21.50;57.60;;;;;;6291400;28;20178;-68
2022/09/27 13:10:51;;;;;;;6.82;1.88;;;21.60;57.60;;;;;;6292418;28;20478;-69
2022/09/27 13:14:00;;;;;;;9.13;2.70;;;21.60;57.30;;;;;;6296243;28;20036;-68
2022/09/27 13:17:01;;;;;;;7.55;2.08;;;21.70;57.30;;;;;;6293535;28;20074;-68
2022/09/27 13:20:33;;;;;;;14.98;2.63;;;21.80;57.60;;;;;;6291157;28;20028;-68
2022/09/27 13:23:34;;;;;;;13.25;3.13;;;21.80;57.20;;;;;;6286105;28;20032;-69
2022/09/27 13:26:42;;;;;;;15.23;2.72;;;21.90;57.70;;;;;;6292228;28;20485;-68
2022/09/27 13:29:43;;;;;;;16.35;3.13;;;21.90;57.10;;;;;;6292501;28;20473;-68
2022/09/27 13:33:12;;;;;;;12.18;3.13;;;21.90;57.10;;;;;;6291754;28;20021;-69
2022/09/27 13:36:23;;;;;;;10.32;3.25;;;21.90;57.20;;;;;;6290465;28;20028;-68
2022/09/27 13:39:24;;;;;;;12.00;2.97;;;21.80;57.60;;;;;;6292130;28;20028;-69
2022/09/27 13:42:35;;;;;;;7.50;2.63;;;21.80;57.80;;;;;;6292200;28;20485;-69
2022/09/27 13:45:49;;;;;;;8.40;2.67;;;21.70;57.80;;;;;;6290250;28;20032;-69
2022/09/27 13:49:39;;;;;;;14.17;3.27;;;21.70;57.70;;;;;;6291202;28;20044;-69
2022/09/27 13:52:44;;;;;;;10.40;3.13;;;21.80;57.40;;;;;;6292863;28;20302;-68
2022/09/27 13:55:49;;;;;;;;;;;21.90;57.00;;;;;;6295917;28;20021;-69
2022/09/27 13:59:01;;;;;;;8.95;2.60;;;22.00;57.20;;;;;;6295202;28;19905;-68
2022/09/27 14:02:08;;;;;;;11.73;2.83;;;22.00;56.90;;;;;;6294863;28;20024;-68
2022/09/27 14:05:16;;;;;;;10.85;3.00;;;22.10;56.80;;;;;;6295013;28;20024;-69
2022/09/27 14:08:27;;;;;;;12.23;3.15;;;22.10;56.70;;;;;;6296853;28;20047;-69
2022/09/27 14:11:37;;;;;;;10.93;3.17;;;22.10;56.60;;;;;;6295012;28;20102;-69
2022/09/27 14:14:41;;;;;;;10.75;3.15;;;22.20;56.90;;;;;;6296242;28;20039;-68
2022/09/27 14:17:44;;;;;;;12.65;3.00;;;22.20;57.00;;;;;;6296489;28;20481;-69
2022/09/27 14:20:48;;;;;;;12.95;3.72;;;22.10;57.00;;;;;;6295514;28;20021;-68
2022/09/27 14:23:50;;;;;;;8.77;3.23;;;22.00;57.40;;;;;;6296128;28;20544;-69
2022/09/27 14:27:13;;;;;;;9.93;2.88;;;21.90;57.40;;;;;;6294714;28;20278;-68
2022/09/27 14:30:16;;;;;;;15.27;3.38;;;21.90;57.30;;;;;;6296490;28;20017;-69
2022/09/27 14:33:28;;;;;;;12.75;2.92;;;22.00;57.50;;;;;;6293456;28;20572;-69
2022/09/27 14:40:07;;;;;;;8.90;2.80;;;22.10;57.10;;;;;;6271388;28;20029;-68
2022/09/27 14:43:17;;;;;;;7.85;3.13;;;22.20;56.90;;;;;;6288303;28;20025;-68
2022/09/27 14:46:29;;;;;;;14.45;3.28;;;22.30;57.00;;;;;;6280125;28;20436;-69
2022/09/27 14:49:31;;;;;;;9.35;2.90;;;22.30;56.90;;;;;;6291962;28;20873;-68
2022/09/27 14:52:34;;;;;;;9.52;3.25;;;22.30;57.00;;;;;;6293565;28;20024;-68
2022/09/27 14:55:35;;;;;;;12.30;3.13;;;22.30;57.30;;;;;;6295076;28;20025;-69
2022/09/27 14:58:36;;;;;;;12.68;3.22;;;22.40;57.40;;;;;;6295466;28;20465;-69
2022/09/27 15:01:38;;;;;;;13.73;3.47;;;22.30;57.10;;;;;;6294684;28;20029;-69
2022/09/27 15:04:45;;;;;;;10.88;3.35;;;22.10;57.80;;;;;;6294977;28;20074;-68
2022/09/27 15:07:47;;;;;;;7.95;3.45;;;22.00;58.00;;;;;;6294981;28;20028;-69
2022/09/27 15:10:48;;;;;;;7.95;3.13;;;21.90;58.10;;;;;;6295992;28;20040;-67
2022/09/27 15:13:51;;;;;;;9.02;3.22;;;21.80;58.10;;;;;;6294576;28;20025;-67
2022/09/27 15:16:53;;;;;;;10.65;3.40;;;21.80;58.20;;;;;;6292826;28;20036;-68
2022/09/27 15:20:21;;;;;;;8.35;2.45;;;21.70;57.90;;;;;;6294737;28;20054;-69
2022/09/27 15:23:27;;;;;;;11.45;3.05;;;21.70;58.10;;;;;;6292243;28;20033;-69
2022/09/27 15:26:43;;;;;;;10.15;2.70;;;21.70;58.20;;;;;;6310679;28;20073;-68
2022/09/27 15:29:52;;;;;;;9.30;2.40;;;21.60;58.00;;;;;;6295591;28;20028;-69
2022/09/27 15:32:55;;;;;;;7.82;2.25;;;21.60;57.90;;;;;;6292358;28;20028;-69
2022/09/27 15:36:01;;;;;;;5.85;2.08;;;21.60;57.60;;;;;;6294147;28;20029;-69
2022/09/27 15:39:11;;;;;;;5.10;1.85;;;21.60;57.50;;;;;;6294227;28;20021;-70
2022/09/27 15:42:16;;;;;;;8.15;2.00;;;21.60;57.40;;;;;;6292307;28;20021;-69
2022/09/27 15:45:47;;;;;;;8.52;1.92;;;21.60;57.40;;;;;;6281894;28;20025;-70
2022/09/27 15:49:18;;;;;;;3.10;1.58;;;21.60;57.20;;;;;;6286784;28;20068;-69
2022/09/27 15:52:42;;;;;;;3.85;1.63;;;21.60;57.00;;;;;;6293209;28;20074;-69
2022/09/27 15:55:44;;;;;;;5.70;1.90;;;21.50;56.90;;;;;;6292942;28;20039;-69
2022/09/27 15:58:44;;;;;;;5.32;1.73;;;21.50;56.80;;;;;;6289328;28;20562;-70
2022/09/27 16:01:46;;;;;;;8.23;1.60;;;21.50;57.10;;;;;;6293297;28;20060;-69
2022/09/27 16:04:47;;;;;;;5.80;1.60;;;21.50;57.00;;;;;;6292784;28;20428;-69
2022/09/27 16:07:48;;;;;;;4.75;1.30;;;21.50;56.90;;;;;;6293304;28;20028;-69
2022/09/27 16:10:51;;;;;;;3.90;1.30;;;21.50;56.90;;;;;;6292209;28;20033;-69
2022/09/27 16:13:53;;;;;;;6.85;1.60;;;21.50;57.00;;;;;;6292506;28;20020;-69
2022/09/27 16:16:59;;;;;;;4.78;1.75;;;21.50;57.10;;;;;;6291627;28;20024;-69
2022/09/27 16:20:00;;;;;;;2.05;1.30;;;21.50;57.00;;;;;;6290066;28;20052;-69
2022/09/27 16:23:01;;;;;;;3.67;1.50;;;21.50;57.10;;;;;;6309402;28;20714;-69
2022/09/27 16:26:01;;;;;;;2.45;1.40;;;21.50;57.20;;;;;;6294440;28;20025;-69
2022/09/27 16:29:03;;;;;;;2.78;1.00;;;21.50;57.10;;;;;;6291012;28;20024;-69
2022/09/27 16:32:05;;;;;;;3.05;1.55;;;21.50;57.10;;;;;;6289661;28;20024;-69